»·PEaware :: N27JP KSNA-KAVX

N27JP :: KSNA-KAVX

FLIGHT INFORMATION

Flight Status: Arrived
Operator: Privately registered:
United States
More flights under this callsign
Pilot: Weston J. (31543)
Aircraft: CESSNA 172 SKYHAWK
(C172)
More flights by this aircraft type
Origin: KSNA John Wayne-Orange Co
United States
Destination: KAVX Catalina
United States
More flights between these airports :: More routes between these airports
Route: SLI V21 SXC
File this flight plan on PilotEdge
Remarks: I7 Practice
Altitude:
(Current/Filed)
4,000ft
Speed:
(Current/Filed)
110kts
Departed: 29-Dec-20 02:46 PM
Arrived: 29-Dec-20 03:18 PM
Distance/Time
Traveled:
0nm/0:32
Distance/Time
To Go:
Arrived

Flight Plot

Page will automatically refresh every two minutes.


Map Options




Map Legend


Flown Route
Filed Route
Departure Airport
Arrival Airport
Navaid (VOR, NDB)
Fix

Horizontal Profiles

Position Reports

Time Latitude Longitude Heading Altitude Ground
Speed
29-Dec-20 13:49 33.676031 -117.871361 219 60ft 0kts
29-Dec-20 13:50 33.676031 -117.871361 219 60ft 0kts
29-Dec-20 13:51 33.676031 -117.871361 219 60ft 0kts
29-Dec-20 13:52 33.676031 -117.871361 219 60ft 0kts
29-Dec-20 13:53 33.676031 -117.871361 219 60ft 0kts
29-Dec-20 13:53 33.676031 -117.871361 219 60ft 0kts
29-Dec-20 13:55 33.676031 -117.871361 219 60ft 0kts
29-Dec-20 13:56 33.676031 -117.871361 219 60ft 0kts
29-Dec-20 13:57 33.676031 -117.871361 219 60ft 0kts
29-Dec-20 13:57 33.676031 -117.871361 219 60ft 0kts
29-Dec-20 13:58 33.675936 -117.871432 190 60ft 0kts
29-Dec-20 13:59 33.675936 -117.871432 190 60ft 0kts
29-Dec-20 14:00 33.675936 -117.871432 190 60ft 0kts
29-Dec-20 14:01 33.675936 -117.871432 190 60ft 0kts
29-Dec-20 14:02 33.675936 -117.871432 190 60ft 0kts
29-Dec-20 14:03 33.675936 -117.871432 190 60ft 0kts
29-Dec-20 14:04 33.675936 -117.871432 190 60ft 0kts
29-Dec-20 14:05 33.675936 -117.871432 190 60ft 0kts
29-Dec-20 14:06 33.675936 -117.871432 190 60ft 0kts
29-Dec-20 14:07 33.675936 -117.871432 190 60ft 0kts
29-Dec-20 14:08 33.675936 -117.871432 190 60ft 0kts
29-Dec-20 14:09 33.675936 -117.871432 190 60ft 0kts
29-Dec-20 14:10 33.675936 -117.871432 190 60ft 0kts
29-Dec-20 14:11 33.675936 -117.871432 190 60ft 0kts
29-Dec-20 14:12 33.675936 -117.871432 190 60ft 0kts
29-Dec-20 14:13 33.675936 -117.871432 190 60ft 0kts
29-Dec-20 14:14 33.675936 -117.871432 190 60ft 0kts
29-Dec-20 14:15 33.675936 -117.871432 190 60ft 0kts
29-Dec-20 14:16 33.675936 -117.871432 190 60ft 0kts
29-Dec-20 14:17 33.675936 -117.871432 190 60ft 0kts
29-Dec-20 14:18 33.675936 -117.871432 190 60ft 0kts
29-Dec-20 14:19 33.675936 -117.871432 190 60ft 0kts
29-Dec-20 14:20 33.675936 -117.871432 190 60ft 0kts
29-Dec-20 14:21 33.675936 -117.871432 190 60ft 0kts
29-Dec-20 14:22 33.675936 -117.871432 190 60ft 0kts
29-Dec-20 14:23 33.675936 -117.871432 190 60ft 0kts
29-Dec-20 14:24 33.675936 -117.871432 190 60ft 0kts
29-Dec-20 14:25 33.675936 -117.871432 190 60ft 0kts
29-Dec-20 14:26 33.675936 -117.871432 190 60ft 0kts
29-Dec-20 14:27 33.675936 -117.871432 190 60ft 0kts
29-Dec-20 14:28 33.675936 -117.871432 190 60ft 0kts
29-Dec-20 14:29 33.675936 -117.871432 190 60ft 0kts
29-Dec-20 14:30 33.675936 -117.871432 190 60ft 0kts
29-Dec-20 14:31 33.675936 -117.871432 190 60ft 0kts
29-Dec-20 14:32 33.675936 -117.871432 190 60ft 0kts
29-Dec-20 14:33 33.675936 -117.871432 190 60ft 0kts
29-Dec-20 14:34 33.675936 -117.871432 190 60ft 0kts
29-Dec-20 14:35 33.675936 -117.871432 190 60ft 0kts
29-Dec-20 14:36 33.675936 -117.871432 190 60ft 0kts
29-Dec-20 14:37 33.675936 -117.871432 190 60ft 0kts
29-Dec-20 14:38 33.675936 -117.871432 190 60ft 0kts
29-Dec-20 14:39 33.675936 -117.871432 190 60ft 0kts
29-Dec-20 14:40 33.675936 -117.871432 190 60ft 0kts
29-Dec-20 14:41 33.674565 -117.871032 207 60ft 12kts
29-Dec-20 14:42 33.669706 -117.874130 208 60ft 24kts
29-Dec-20 14:43 33.668408 -117.874581 141 60ft 0kts
29-Dec-20 14:44 33.668041 -117.874061 104 60ft 10kts
29-Dec-20 14:45 33.684023 -117.862873 25 472ft 100kts
29-Dec-20 14:46 33.690263 -117.884043 249 1460ft 98kts
29-Dec-20 14:47 33.679257 -117.914455 249 2387ft 99kts
29-Dec-20 14:48 33.662842 -117.942421 232 3272ft 104kts
29-Dec-20 14:49 33.643688 -117.969561 232 3992ft 111kts
29-Dec-20 14:50 33.623117 -118.001284 236 4016ft 123kts
29-Dec-20 14:51 33.602784 -118.034849 236 4016ft 124kts
29-Dec-20 14:52 33.582604 -118.069071 240 4018ft 125kts
29-Dec-20 14:53 33.562728 -118.103931 239 4018ft 126kts
29-Dec-20 14:54 33.543101 -118.137458 240 4018ft 115kts
29-Dec-20 14:55 33.524758 -118.168685 241 4021ft 113kts
29-Dec-20 14:56 33.506554 -118.199522 241 4022ft 113kts
29-Dec-20 14:57 33.488324 -118.230179 240 4023ft 112kts
29-Dec-20 14:58 33.470069 -118.260847 240 4024ft 113kts
29-Dec-20 14:59 33.451696 -118.291420 239 4026ft 113kts
29-Dec-20 15:00 33.433156 -118.322400 239 4018ft 114kts
29-Dec-20 15:01 33.414617 -118.353416 239 4018ft 114kts
29-Dec-20 15:02 33.396037 -118.384534 239 4018ft 114kts
29-Dec-20 15:03 33.377545 -118.415482 239 4018ft 114kts
29-Dec-20 15:04 33.387648 -118.436738 16 4017ft 99kts
29-Dec-20 15:05 33.412441 -118.421125 25 4018ft 101kts
29-Dec-20 15:06 33.439066 -118.411559 10 4018ft 99kts
29-Dec-20 15:07 33.466352 -118.406138 5 4017ft 99kts
29-Dec-20 15:08 33.489930 -118.418172 318 4016ft 99kts
29-Dec-20 15:09 33.509995 -118.440729 335 4004ft 98kts
29-Dec-20 15:10 33.521175 -118.418823 125 3968ft 114kts
29-Dec-20 15:11 33.493819 -118.406029 181 3322ft 100kts
29-Dec-20 15:12 33.465958 -118.405684 181 2721ft 99kts
29-Dec-20 15:13 33.440550 -118.412834 212 2327ft 89kts
29-Dec-20 15:14 33.431865 -118.400872 52 2316ft 84kts
29-Dec-20 15:15 33.424466 -118.385607 209 2267ft 84kts
29-Dec-20 15:16 33.410175 -118.406950 239 1674ft 69kts
29-Dec-20 15:18 33.404787 -118.415100 167 1584ft 7kts
29-Dec-20 15:19 33.403801 -118.415075 26 1588ft 0kts
29-Dec-20 15:20 33.403801 -118.415075 26 1588ft 0kts
29-Dec-20 15:21 33.403722 -118.415093 334 1588ft 1kts
29-Dec-20 15:22 33.403576 -118.415016 337 1588ft 0kts
29-Dec-20 15:23 33.403576 -118.415016 337 1588ft 0kts
29-Dec-20 15:24 33.676031 -117.871361 219 60ft 0kts
29-Dec-20 15:25 33.676031 -117.871361 219 60ft 0kts
29-Dec-20 15:26 33.676031 -117.871361 219 60ft 0kts
29-Dec-20 15:27 33.676031 -117.871361 219 60ft 0kts
29-Dec-20 15:28 33.676031 -117.871361 219 60ft 0kts
29-Dec-20 15:29 33.676031 -117.871361 219 60ft 0kts
29-Dec-20 15:29 33.676031 -117.871361 219 60ft 0kts
29-Dec-20 15:31 33.676031 -117.871361 219 60ft 0kts
29-Dec-20 15:32 33.676031 -117.871361 219 60ft 0kts

Navigation Log

Ident Type
Flight plan parsing failed, navigation log unavailable